Time;durP1;ratioP1;P1;durP2;ratioP2;P2;SDS_P1;SDS_P2;PMS_P1;PMS_P2;Temp;Humidity;BMP_temperature;BMP_pressure;BME280_temperature;BME280_humidity;BME280_pressure;Samples;Min_cycle;Max_cycle;Signal;HPM_P1;HPM_P2
2022/12/16 00:00:29;;;;;;;0.60;0.50;;;-5.40;99.90;;;;;;5074484;28;20240;-78
2022/12/16 00:02:55;;;;;;;0.50;0.50;;;-5.50;99.90;;;;;;5073990;28;20257;-75
2022/12/16 00:05:23;;;;;;;2.10;2.00;;;-5.50;99.90;;;;;;5073013;28;20191;-78
2022/12/16 00:07:50;;;;;;;0.50;0.40;;;-5.50;99.90;;;;;;5074153;28;20204;-79
2022/12/16 00:10:17;;;;;;;0.50;0.40;;;-5.50;99.90;;;;;;5074053;28;20681;-78
2022/12/16 00:12:44;;;;;;;0.40;0.40;;;-5.50;99.90;;;;;;5073454;28;20293;-77
2022/12/16 00:15:11;;;;;;;0.40;0.40;;;-5.50;99.90;;;;;;5073180;28;20204;-78
2022/12/16 00:17:38;;;;;;;2.10;2.00;;;-5.40;99.90;;;;;;5074104;28;20196;-77
2022/12/16 00:20:06;;;;;;;0.50;0.40;;;-5.30;99.90;;;;;;5073678;28;20217;-78
2022/12/16 00:22:34;;;;;;;0.82;0.82;;;-5.30;99.90;;;;;;5073258;28;20978;-79
2022/12/16 00:25:01;;;;;;;0.80;0.80;;;-5.30;99.90;;;;;;5072505;28;20677;-76
2022/12/16 00:27:28;;;;;;;2.45;2.25;;;-5.40;99.90;;;;;;5072771;28;20190;-77
2022/12/16 00:29:55;;;;;;;0.50;0.50;;;-5.40;99.90;;;;;;5073641;28;20623;-78
2022/12/16 00:32:21;;;;;;;0.50;0.50;;;-5.30;99.90;;;;;;5072658;28;20213;-78
2022/12/16 00:34:48;;;;;;;0.50;0.40;;;-5.30;99.90;;;;;;5072892;28;20670;-76
2022/12/16 00:37:15;;;;;;;0.50;0.50;;;-5.40;99.90;;;;;;5073328;28;20194;-78
2022/12/16 00:39:43;;;;;;;0.50;0.50;;;-5.40;99.90;;;;;;5073311;28;20205;-78
2022/12/16 00:42:10;;;;;;;0.40;0.40;;;-5.50;99.90;;;;;;5073041;28;20303;-78
2022/12/16 00:44:37;;;;;;;3.25;2.15;;;-5.50;99.90;;;;;;5072142;28;20668;-78
2022/12/16 00:47:04;;;;;;;1.23;1.20;;;-5.50;99.90;;;;;;5073412;28;20204;-78
2022/12/16 00:49:30;;;;;;;2.55;1.75;;;-5.40;99.90;;;;;;5072976;28;20289;-78
2022/12/16 00:51:57;;;;;;;2.17;1.98;;;-5.40;99.90;;;;;;5073149;28;20301;-77
2022/12/16 00:54:24;;;;;;;0.40;0.40;;;-5.30;99.90;;;;;;5072495;28;20198;-78
2022/12/16 00:56:52;;;;;;;4.53;4.13;;;-5.40;99.90;;;;;;5072710;28;20201;-77
2022/12/16 00:59:19;;;;;;;0.80;0.80;;;-5.30;99.90;;;;;;5072179;28;20216;-78
2022/12/16 01:01:46;;;;;;;0.40;0.40;;;-5.30;99.90;;;;;;5072626;28;20679;-77
2022/12/16 01:04:13;;;;;;;0.70;0.70;;;-5.30;99.90;;;;;;5072637;28;20204;-78
2022/12/16 01:06:39;;;;;;;0.40;0.40;;;-5.30;99.90;;;;;;5073205;28;20622;-77
2022/12/16 01:09:07;;;;;;;0.40;0.40;;;-5.30;99.90;;;;;;5072960;28;20275;-75
2022/12/16 01:11:34;;;;;;;0.40;0.40;;;-5.30;99.90;;;;;;5072553;28;20224;-78
2022/12/16 01:14:02;;;;;;;0.40;0.40;;;-5.30;99.90;;;;;;5071929;28;20293;-76
2022/12/16 01:16:29;;;;;;;0.80;0.80;;;-5.40;99.90;;;;;;5072647;28;20200;-78
2022/12/16 01:18:56;;;;;;;0.47;0.40;;;-5.40;99.90;;;;;;5072565;28;20305;-76
2022/12/16 01:21:23;;;;;;;7.78;7.38;;;-5.50;99.90;;;;;;5072384;28;20301;-78
2022/12/16 01:23:49;;;;;;;1.60;1.50;;;-5.50;99.90;;;;;;5071425;28;20190;-77
2022/12/16 01:26:18;;;;;;;0.68;0.68;;;-5.40;99.90;;;;;;5072475;28;20586;-79
2022/12/16 01:28:44;;;;;;;2.90;2.80;;;-5.50;99.90;;;;;;5072073;28;20606;-78
2022/12/16 01:31:14;;;;;;;0.60;0.60;;;-5.50;99.90;;;;;;5072016;28;20288;-77
2022/12/16 01:33:41;;;;;;;2.20;1.15;;;-5.50;99.90;;;;;;5072360;28;20209;-78
2022/12/16 01:36:09;;;;;;;3.45;3.25;;;-5.50;99.90;;;;;;5071820;28;20548;-78
2022/12/16 01:38:37;;;;;;;0.50;0.40;;;-5.50;99.90;;;;;;5072424;28;20213;-78
2022/12/16 01:41:04;;;;;;;0.40;0.40;;;-5.50;99.90;;;;;;5072262;28;20284;-78
2022/12/16 01:43:34;;;;;;;0.40;0.40;;;-5.50;99.90;;;;;;5072044;28;20672;-78
2022/12/16 01:46:06;;;;;;;0.43;0.40;;;-5.60;99.90;;;;;;5072438;28;20189;-77
2022/12/16 01:48:41;;;;;;;2.55;2.45;;;-5.60;99.90;;;;;;5072057;28;20819;-78
2022/12/16 01:51:15;;;;;;;0.40;0.40;;;-5.60;99.90;;;;;;5072245;28;20182;-78
2022/12/16 01:53:44;;;;;;;0.40;0.40;;;-5.60;99.90;;;;;;5071704;28;20198;-78
2022/12/16 01:56:14;;;;;;;0.40;0.40;;;-5.70;99.90;;;;;;5071224;28;20210;-78
2022/12/16 01:58:42;;;;;;;0.70;0.70;;;-5.60;99.90;;;;;;5072032;28;20297;-78
2022/12/16 02:01:09;;;;;;;0.40;0.40;;;-5.60;99.90;;;;;;5071969;28;20563;-78
2022/12/16 02:03:38;;;;;;;2.38;2.28;;;-5.60;99.90;;;;;;5072142;28;20285;-78
2022/12/16 02:06:06;;;;;;;0.40;0.40;;;-5.60;99.90;;;;;;5071385;28;20193;-77
2022/12/16 02:08:33;;;;;;;0.50;0.40;;;-5.60;99.90;;;;;;5072131;28;20627;-77
2022/12/16 02:11:21;;;;;;;0.60;0.60;;;-5.70;99.90;;;;;;5071393;28;20197;-77
2022/12/16 02:14:03;;;;;;;0.40;0.40;;;-5.70;99.90;;;;;;5071464;28;20636;-77
2022/12/16 02:16:34;;;;;;;1.55;1.45;;;-5.70;99.90;;;;;;5071866;28;20323;-77
2022/12/16 02:19:17;;;;;;;1.92;1.83;;;-5.70;99.90;;;;;;5072896;28;20278;-79
2022/12/16 02:21:49;;;;;;;0.50;0.40;;;-5.60;99.90;;;;;;5071663;28;20308;-79
2022/12/16 02:24:56;;;;;;;0.65;0.65;;;-5.60;99.90;;;;;;5070104;28;20298;-78
2022/12/16 02:27:48;;;;;;;0.40;0.40;;;-5.50;99.90;;;;;;5071455;28;20194;-77
2022/12/16 02:30:46;;;;;;;0.50;0.50;;;-5.50;99.90;;;;;;5071609;28;20228;-77
2022/12/16 02:33:35;;;;;;;1.05;1.05;;;-5.50;99.90;;;;;;5071214;28;20587;-77
2022/12/16 02:36:10;;;;;;;0.40;0.40;;;-5.50;99.90;;;;;;5070342;28;20198;-73
2022/12/16 02:38:47;;;;;;;0.80;0.80;;;-5.50;99.90;;;;;;5071086;28;20184;-78
2022/12/16 02:41:21;;;;;;;0.40;0.40;;;-5.50;99.90;;;;;;5071492;28;20184;-78
2022/12/16 02:43:56;;;;;;;0.50;0.50;;;-5.50;99.90;;;;;;5071058;28;20181;-77
2022/12/16 02:46:27;;;;;;;0.40;0.40;;;-5.40;99.90;;;;;;5071482;28;20269;-77
2022/12/16 02:48:55;;;;;;;0.40;0.40;;;-5.40;99.90;;;;;;5072074;28;20181;-78
2022/12/16 02:51:24;;;;;;;0.50;0.50;;;-5.40;99.90;;;;;;5075215;28;20224;-77
2022/12/16 02:53:52;;;;;;;0.40;0.40;;;-5.40;99.90;;;;;;5075118;28;20197;-76
2022/12/16 02:56:30;;;;;;;9.93;4.13;;;-5.40;99.90;;;;;;5075141;28;20656;-77
2022/12/16 02:59:09;;;;;;;0.40;0.40;;;-5.30;99.90;;;;;;5075174;28;20571;-75
2022/12/16 03:01:45;;;;;;;0.50;0.50;;;-5.40;99.90;;;;;;5075280;28;20263;-80
2022/12/16 03:04:18;;;;;;;2.25;2.15;;;-5.40;99.90;;;;;;5075584;28;20243;-78
2022/12/16 03:06:48;;;;;;;0.40;0.40;;;-5.30;99.90;;;;;;5075040;28;20228;-78
2022/12/16 03:09:21;;;;;;;0.40;0.40;;;-5.30;99.90;;;;;;5075226;28;20280;-79
2022/12/16 03:11:49;;;;;;;0.40;0.40;;;-5.30;99.90;;;;;;5074668;28;20312;-78
2022/12/16 03:14:19;;;;;;;0.73;0.73;;;-5.40;99.90;;;;;;5074263;28;20200;-77
2022/12/16 03:16:49;;;;;;;0.40;0.40;;;-5.40;99.90;;;;;;5074671;28;20204;-79
2022/12/16 03:19:16;;;;;;;1.60;0.90;;;-5.50;99.90;;;;;;5074820;28;20213;-78
2022/12/16 03:21:48;;;;;;;0.55;0.55;;;-5.50;99.90;;;;;;5073934;28;20222;-78
2022/12/16 03:24:16;;;;;;;0.40;0.40;;;-5.50;99.90;;;;;;5073295;28;20200;-78
2022/12/16 03:26:48;;;;;;;0.40;0.40;;;-5.60;99.90;;;;;;5074544;28;20284;-78
2022/12/16 03:29:21;;;;;;;0.40;0.40;;;-5.60;99.90;;;;;;5074490;28;20688;-77
2022/12/16 03:31:54;;;;;;;0.43;0.40;;;-5.50;99.90;;;;;;5074894;28;20713;-77
2022/12/16 03:34:28;;;;;;;1.17;1.13;;;-5.50;99.90;;;;;;5074245;28;20273;-78
2022/12/16 03:36:59;;;;;;;3.45;3.25;;;-5.60;99.90;;;;;;5074216;28;20178;-78
2022/12/16 03:39:27;;;;;;;0.40;0.40;;;-5.50;99.90;;;;;;5074249;28;20202;-78
2022/12/16 03:41:55;;;;;;;0.63;0.63;;;-5.40;99.90;;;;;;5074286;28;20309;-77
2022/12/16 03:44:25;;;;;;;0.43;0.43;;;-5.40;99.90;;;;;;5073736;28;20281;-78
2022/12/16 03:46:53;;;;;;;1.38;1.27;;;-5.40;99.90;;;;;;5074509;28;20201;-79
2022/12/16 03:49:22;;;;;;;4.90;2.88;;;-5.40;99.90;;;;;;5074305;28;20728;-78
2022/12/16 03:51:49;;;;;;;0.40;0.40;;;-5.30;99.90;;;;;;5074100;28;20218;-78
2022/12/16 03:54:17;;;;;;;0.75;0.40;;;-5.40;99.90;;;;;;5073624;28;20200;-78
2022/12/16 03:56:44;;;;;;;0.50;0.40;;;-5.40;99.90;;;;;;5073996;28;20279;-77
2022/12/16 03:59:11;;;;;;;1.65;1.55;;;-5.50;99.90;;;;;;5074219;28;20673;-78
2022/12/16 04:01:38;;;;;;;0.60;0.60;;;-5.50;99.90;;;;;;5072794;28;20218;-78
2022/12/16 04:04:07;;;;;;;0.40;0.40;;;-5.50;99.90;;;;;;5073341;28;20194;-77
2022/12/16 04:06:33;;;;;;;0.50;0.50;;;-5.50;99.90;;;;;;5073665;28;20197;-78
2022/12/16 04:09:00;;;;;;;0.40;0.40;;;-5.50;99.90;;;;;;5074067;28;20296;-78
2022/12/16 04:25:21;;;;;;;0.40;0.40;;;-5.70;99.90;;;;;;5073254;28;20266;-77
2022/12/16 04:27:49;;;;;;;0.40;0.40;;;-5.60;99.90;;;;;;5073431;28;20273;-77
2022/12/16 04:30:20;;;;;;;1.33;1.30;;;-5.60;99.90;;;;;;5072927;28;20200;-77
